Time;durP1;ratioP1;P1;durP2;ratioP2;P2;SDS_P1;SDS_P2;PMS_P1;PMS_P2;Temp;Humidity;BMP_temperature;BMP_pressure;BME280_temperature;BME280_humidity;BME280_pressure;Samples;Min_cycle;Max_cycle;Signal;HPM_P1;HPM_P2
2022/12/24 00:02:22;;;;;;;39.72;5.25;;;5.50;99.90;;;;;;4961635;28;20043;-91
2022/12/24 00:04:48;;;;;;;35.83;5.30;;;5.40;99.90;;;;;;4960772;29;20067;-93
2022/12/24 00:07:13;;;;;;;28.88;5.68;;;5.40;99.90;;;;;;4959215;29;20112;-94
2022/12/24 00:09:39;;;;;;;44.38;5.22;;;5.40;99.90;;;;;;4991582;28;20028;-93
2022/12/24 00:12:05;;;;;;;46.55;5.57;;;5.40;99.90;;;;;;4955587;29;20052;-94
2022/12/24 00:14:32;;;;;;;53.60;5.25;;;5.40;99.90;;;;;;4958208;29;20031;-93
2022/12/24 00:16:58;;;;;;;47.55;6.88;;;5.40;99.90;;;;;;4991725;28;20067;-87
2022/12/24 00:19:27;;;;;;;38.00;6.90;;;5.40;99.90;;;;;;4978439;28;20088;-86
2022/12/24 00:21:53;;;;;;;52.25;6.35;;;5.50;99.90;;;;;;4962511;28;20031;-89
2022/12/24 00:24:18;;;;;;;39.20;6.07;;;5.50;99.90;;;;;;4961331;28;20012;-93
2022/12/24 00:26:44;;;;;;;32.22;5.70;;;5.50;99.90;;;;;;4961795;28;20035;-91
2022/12/24 00:29:13;;;;;;;35.88;5.30;;;5.60;99.90;;;;;;4960809;28;20048;-88
2022/12/24 00:31:39;;;;;;;37.40;6.43;;;5.70;99.90;;;;;;4962200;28;20015;-93
2022/12/24 00:34:05;;;;;;;48.35;6.50;;;5.70;99.90;;;;;;4960540;28;20020;-95
2022/12/24 00:36:30;;;;;;;33.47;6.88;;;5.90;99.90;;;;;;4973136;28;20317;-93
2022/12/24 00:38:56;;;;;;;31.52;6.07;;;5.90;99.90;;;;;;4981391;28;20019;-94
2022/12/24 00:41:28;;;;;;;51.45;6.13;;;5.90;99.90;;;;;;4980808;28;20031;-93
2022/12/24 00:44:04;;;;;;;37.72;5.03;;;6.00;99.90;;;;;;4981183;28;20034;-90
2022/12/24 00:46:31;;;;;;;24.85;3.13;;;6.10;99.90;;;;;;4978523;28;20028;-93
2022/12/24 00:48:56;;;;;;;36.38;5.18;;;6.10;99.90;;;;;;4977209;28;20027;-94
2022/12/24 00:51:23;;;;;;;35.85;4.35;;;6.20;99.90;;;;;;4980316;28;20046;-92
2022/12/24 00:53:50;;;;;;;26.20;4.45;;;6.30;99.90;;;;;;4972463;28;20012;-95
2022/12/24 00:56:16;;;;;;;42.03;4.75;;;6.40;99.90;;;;;;4976202;28;20045;-93
2022/12/24 00:58:41;;;;;;;33.47;4.07;;;6.40;99.90;;;;;;4975657;28;20051;-92
2022/12/24 01:01:07;;;;;;;28.73;3.95;;;6.50;99.90;;;;;;4978976;28;20039;-94
2022/12/24 01:03:36;;;;;;;20.48;4.10;;;6.60;99.90;;;;;;4979512;28;20042;-86
2022/12/24 01:06:04;;;;;;;23.70;4.22;;;6.70;99.90;;;;;;4979962;28;20035;-88
2022/12/24 01:08:31;;;;;;;15.77;3.20;;;6.70;99.90;;;;;;4979376;28;20027;-93
2022/12/24 01:10:57;;;;;;;31.33;3.70;;;6.80;99.90;;;;;;4980644;28;20008;-92
2022/12/24 01:13:24;;;;;;;19.45;4.38;;;6.80;99.90;;;;;;4980158;28;20015;-91
2022/12/24 01:15:49;;;;;;;25.23;4.88;;;6.80;99.90;;;;;;4981173;28;20016;-88
2022/12/24 01:18:15;;;;;;;21.33;3.70;;;6.70;99.90;;;;;;4980632;28;20094;-88
2022/12/24 01:20:41;;;;;;;17.98;3.67;;;6.70;99.90;;;;;;4980533;28;20026;-88
2022/12/24 01:23:12;;;;;;;17.35;3.90;;;6.70;99.90;;;;;;4980569;28;20020;-90
2022/12/24 01:25:38;;;;;;;;;;;6.70;99.90;;;;;;4980751;28;20042;-92
2022/12/24 01:28:04;;;;;;;15.73;3.08;;;6.70;99.90;;;;;;5009876;28;19965;-94
2022/12/24 01:30:31;;;;;;;15.25;2.33;;;6.60;99.90;;;;;;4976766;29;20035;-94
2022/12/24 01:32:57;;;;;;;16.70;1.92;;;6.70;99.90;;;;;;4975633;29;20020;-93
2022/12/24 01:35:22;;;;;;;9.63;1.70;;;6.60;99.90;;;;;;4972940;29;20106;-93
2022/12/24 01:37:48;;;;;;;13.30;1.65;;;6.70;99.90;;;;;;4971304;29;20031;-93
2022/12/24 01:45:52;;;;;;;12.68;2.38;;;6.70;99.90;;;;;;4973149;29;20042;-94
2022/12/24 01:48:30;;;;;;;13.57;2.97;;;6.80;99.90;;;;;;4971616;29;20106;-94
2022/12/24 01:51:18;;;;;;;11.52;2.22;;;6.80;99.90;;;;;;4971289;29;20035;-92
2022/12/24 01:53:47;;;;;;;15.82;2.10;;;6.80;99.90;;;;;;4972709;29;20031;-94
2022/12/24 01:56:14;;;;;;;9.93;2.03;;;6.80;99.90;;;;;;4974578;28;20039;-92
2022/12/24 01:58:44;;;;;;;14.43;1.98;;;6.80;99.90;;;;;;4975731;28;20039;-92
2022/12/24 02:01:09;;;;;;;14.00;2.40;;;6.90;99.90;;;;;;4972894;29;20023;-94
2022/12/24 02:03:35;;;;;;;11.95;2.70;;;6.90;99.90;;;;;;4972094;29;20041;-94
2022/12/24 02:06:01;;;;;;;19.90;4.05;;;6.90;99.90;;;;;;4990278;28;20051;-94
2022/12/24 02:08:38;;;;;;;11.38;1.75;;;6.90;99.90;;;;;;4976288;28;20552;-95
2022/12/24 02:11:16;;;;;;;15.88;2.10;;;6.80;99.90;;;;;;4994164;28;20638;-94
2022/12/24 02:13:48;;;;;;;18.67;2.33;;;6.80;99.90;;;;;;4977599;28;20045;-95
2022/12/24 02:16:22;;;;;;;14.38;3.10;;;6.80;99.90;;;;;;4996135;28;20022;-94
2022/12/24 02:19:03;;;;;;;13.82;2.63;;;6.70;99.90;;;;;;4978212;28;20042;-92
2022/12/24 02:21:48;;;;;;;9.32;2.28;;;6.70;99.90;;;;;;4996413;28;20019;-94
2022/12/24 02:24:22;;;;;;;11.38;2.38;;;6.70;99.90;;;;;;4978612;28;20196;-93
2022/12/24 02:27:36;;;;;;;15.27;2.65;;;6.60;99.90;;;;;;4978182;28;20018;-93
2022/12/24 02:30:08;;;;;;;13.90;2.50;;;6.70;99.90;;;;;;4971394;28;20042;-93
2022/12/24 02:32:56;;;;;;;14.68;2.80;;;6.70;99.90;;;;;;4980287;28;20095;-94
2022/12/24 02:35:42;;;;;;;19.88;2.90;;;6.70;99.90;;;;;;4999287;28;20042;-93
2022/12/24 02:38:31;;;;;;;16.27;2.85;;;6.70;99.90;;;;;;4980996;28;20055;-93
2022/12/24 02:41:13;;;;;;;17.20;3.08;;;6.80;99.90;;;;;;4981804;28;20014;-94
2022/12/24 02:43:43;;;;;;;16.58;3.05;;;6.80;99.90;;;;;;4997160;28;20023;-92
2022/12/24 02:46:30;;;;;;;17.35;3.85;;;6.90;99.90;;;;;;4981799;28;20050;-87
2022/12/24 02:48:58;;;;;;;14.65;2.58;;;6.90;99.90;;;;;;4981898;28;20045;-92
2022/12/24 02:51:24;;;;;;;21.30;4.03;;;6.90;99.90;;;;;;4980639;28;20400;-94
2022/12/24 02:53:50;;;;;;;23.33;3.45;;;6.90;99.90;;;;;;4982240;28;20026;-90
2022/12/24 02:56:42;;;;;;;17.20;4.20;;;7.00;99.90;;;;;;4980822;28;20035;-88
2022/12/24 02:59:37;;;;;;;24.42;3.28;;;6.90;99.90;;;;;;4974525;28;20026;-85
2022/12/24 03:02:31;;;;;;;15.20;3.10;;;6.90;99.90;;;;;;4967792;28;20035;-94
2022/12/24 03:05:16;;;;;;;17.52;2.50;;;6.90;99.90;;;;;;4996980;28;20106;-92
2022/12/24 03:08:12;;;;;;;12.68;2.67;;;7.00;99.90;;;;;;4982343;28;20022;-88
2022/12/24 03:11:00;;;;;;;7.47;2.28;;;7.00;99.90;;;;;;4986126;28;20030;-93
2022/12/24 03:13:28;;;;;;;15.07;3.45;;;6.90;99.90;;;;;;4985857;28;20034;-88
2022/12/24 03:15:55;;;;;;;13.38;2.53;;;7.00;99.90;;;;;;4985587;28;20033;-89
2022/12/24 03:18:24;;;;;;;13.77;2.55;;;6.90;99.90;;;;;;5000382;28;20053;-86
2022/12/24 03:21:17;;;;;;;14.15;2.40;;;6.90;99.90;;;;;;4986040;28;20035;-84
2022/12/24 03:23:43;;;;;;;12.23;2.25;;;6.90;99.90;;;;;;5002886;28;20023;-84
2022/12/24 03:26:11;;;;;;;10.30;2.40;;;7.00;99.90;;;;;;4985977;28;20031;-91
2022/12/24 03:28:39;;;;;;;9.57;1.52;;;7.00;99.90;;;;;;4986380;28;20050;-85
2022/12/24 03:31:06;;;;;;;8.68;1.92;;;7.00;99.90;;;;;;4983473;28;20038;-92
2022/12/24 03:33:32;;;;;;;10.60;1.70;;;7.00;99.90;;;;;;4999127;28;20039;-95
2022/12/24 03:35:57;;;;;;;10.93;1.38;;;7.10;99.90;;;;;;4985773;28;20058;-86
2022/12/24 03:38:23;;;;;;;17.25;1.45;;;7.10;99.90;;;;;;5002909;28;20025;-86
2022/12/24 03:40:48;;;;;;;5.72;1.23;;;7.10;99.90;;;;;;5002475;28;20035;-92
2022/12/24 03:43:14;;;;;;;8.30;1.65;;;7.00;99.90;;;;;;5002685;28;20043;-90
2022/12/24 03:45:40;;;;;;;18.70;1.60;;;7.10;99.90;;;;;;4985850;28;20019;-85
2022/12/24 03:48:06;;;;;;;16.50;2.38;;;7.10;99.90;;;;;;4985789;28;20043;-86
2022/12/24 03:50:31;;;;;;;9.52;1.65;;;7.10;99.90;;;;;;5002525;28;20022;-88
2022/12/24 03:52:57;;;;;;;14.25;1.40;;;7.10;99.90;;;;;;4985752;28;20011;-86
2022/12/24 03:55:23;;;;;;;6.70;1.30;;;7.10;99.90;;;;;;5001907;28;20019;-87
2022/12/24 03:57:49;;;;;;;6.10;1.10;;;7.10;99.90;;;;;;4999512;28;20069;-93
2022/12/24 04:00:15;;;;;;;7.10;1.70;;;7.10;99.90;;;;;;5000400;28;20015;-94
2022/12/24 04:02:41;;;;;;;11.13;1.45;;;7.10;99.90;;;;;;5001882;28;20019;-86
2022/12/24 04:05:12;;;;;;;7.10;1.30;;;7.10;99.90;;;;;;4985312;28;20127;-90
2022/12/24 04:07:37;;;;;;;13.13;1.33;;;7.10;99.90;;;;;;4985113;28;20110;-90
2022/12/24 04:10:03;;;;;;;5.13;1.52;;;7.10;99.90;;;;;;5001722;28;20030;-93
2022/12/24 04:12:29;;;;;;;5.68;1.13;;;7.20;99.90;;;;;;5001215;28;20102;-88
2022/12/24 04:14:57;;;;;;;3.45;1.00;;;7.10;99.90;;;;;;4985285;28;20086;-87
2022/12/24 04:17:22;;;;;;;8.70;1.42;;;7.20;99.90;;;;;;5001719;28;20026;-88
2022/12/24 04:19:49;;;;;;;7.28;1.73;;;7.20;99.90;;;;;;5001785;28;20034;-90
2022/12/24 04:22:15;;;;;;;8.10;1.27;;;7.20;99.90;;;;;;4984217;28;20030;-93
2022/12/24 04:24:40;;;;;;;8.60;1.20;;;7.20;99.90;;;;;;4983160;28;20031;-90
2022/12/24 04:27:06;;;;;;;12.98;1.40;;;7.20;99.90;;;;;;5000792;28;20054;-94
2022/12/24 04:29:32;;;;;;;16.60;2.40;;;7.20;99.90;;;;;;4999623;28;20035;-94
2022/12/24 04:31:58;;;;;;;11.93;1.40;;;7.20;99.90;;;;;;4983411;28;20039;-92
2022/12/24 04:34:23;;;;;;;8.90;1.92;;;7.10;99.90;;;;;;4982473;28;20045;-96
2022/12/24 04:36:51;;;;;;;15.00;1.90;;;7.10;99.90;;;;;;4982426;28;20085;-96
2022/12/24 04:39:20;;;;;;;12.02;1.70;;;7.10;99.90;;;;;;5000417;28;20023;-93
2022/12/24 04:41:51;;;;;;;12.45;1.52;;;7.10;99.90;;;;;;4983323;28;20038;-95
2022/12/24 04:44:17;;;;;;;4.68;0.93;;;7.10;99.90;;;;;;4983233;28;20042;-91
2022/12/24 04:46:43;;;;;;;11.43;1.58;;;7.00;99.90;;;;;;4982380;28;20058;-94
2022/12/24 04:49:09;;;;;;;7.03;1.50;;;7.00;99.90;;;;;;4997488;28;20034;-96
2022/12/24 04:51:35;;;;;;;13.65;1.98;;;6.90;99.90;;;;;;4983197;28;20066;-94
2022/12/24 04:54:00;;;;;;;9.70;1.73;;;6.90;99.90;;;;;;4983097;28;20042;-87
2022/12/24 04:56:29;;;;;;;13.63;2.30;;;6.90;99.90;;;;;;5000630;28;20034;-90
2022/12/24 04:58:56;;;;;;;11.15;2.40;;;6.80;99.90;;;;;;4983766;28;20015;-94
2022/12/24 05:01:24;;;;;;;11.25;2.00;;;6.80;99.90;;;;;;4982918;28;20043;-86
2022/12/24 05:03:50;;;;;;;12.90;1.38;;;6.70;99.90;;;;;;4983588;28;20022;-91
2022/12/24 05:06:20;;;;;;;11.48;1.55;;;6.70;99.90;;;;;;4982559;28;20055;-91
2022/12/24 05:08:46;;;;;;;4.75;1.20;;;6.60;99.90;;;;;;4982425;28;20022;-89
2022/12/24 05:11:14;;;;;;;8.73;1.35;;;6.50;99.90;;;;;;4999041;28;20034;-95
2022/12/24 05:13:40;;;;;;;7.75;1.10;;;6.40;99.90;;;;;;4981711;28;20103;-95
2022/12/24 05:16:07;;;;;;;10.10;1.30;;;6.30;99.90;;;;;;4981580;28;20014;-93
2022/12/24 05:18:32;;;;;;;10.85;2.00;;;6.30;99.90;;;;;;5000120;28;20026;-94
2022/12/24 05:20:58;;;;;;;9.55;1.40;;;6.20;99.90;;;;;;4997390;28;20041;-96
2022/12/24 05:26:26;;;;;;;13.85;1.83;;;6.10;99.90;;;;;;5000009;28;20042;-87
2022/12/24 05:28:54;;;;;;;7.93;1.20;;;6.00;99.90;;;;;;4983260;28;20022;-88
2022/12/24 05:31:21;;;;;;;10.95;1.85;;;5.90;99.90;;;;;;4982756;28;20017;-93
2022/12/24 05:33:47;;;;;;;3.55;0.82;;;5.90;99.90;;;;;;4981399;28;20031;-94
2022/12/24 05:36:13;;;;;;;7.97;1.30;;;5.90;99.90;;;;;;4998933;28;20124;-93
2022/12/24 05:38:39;;;;;;;10.65;1.55;;;5.80;99.90;;;;;;4982615;28;20018;-92
2022/12/24 05:41:05;;;;;;;5.78;1.50;;;5.80;99.90;;;;;;4999318;28;20037;-87
2022/12/24 05:43:34;;;;;;;11.98;1.70;;;5.80;99.90;;;;;;5000227;28;20039;-87
2022/12/24 05:46:03;;;;;;;6.53;1.50;;;5.70;99.90;;;;;;5000279;28;20025;-87
2022/12/24 05:48:29;;;;;;;12.13;1.60;;;5.70;99.90;;;;;;4983388;28;20029;-86
2022/12/24 05:50:55;;;;;;;15.38;2.03;;;5.70;99.90;;;;;;5000113;28;20042;-86
2022/12/24 05:53:21;;;;;;;12.05;1.60;;;5.60;99.90;;;;;;4983336;28;20078;-88
2022/12/24 05:55:47;;;;;;;10.85;1.55;;;5.60;99.90;;;;;;4983224;28;20069;-87
2022/12/24 05:58:13;;;;;;;7.35;1.70;;;5.70;99.90;;;;;;4983125;28;20108;-86
2022/12/24 06:00:38;;;;;;;10.63;3.30;;;5.60;99.90;;;;;;4999954;28;20014;-85
2022/12/24 06:03:04;;;;;;;9.25;1.60;;;5.60;99.90;;;;;;4999950;28;20018;-85
2022/12/24 06:05:30;;;;;;;10.02;1.80;;;5.50;99.90;;;;;;4963591;28;20071;-90
2022/12/24 06:07:56;;;;;;;21.98;3.08;;;5.50;99.90;;;;;;4979762;28;20054;-87
2022/12/24 06:10:21;;;;;;;18.25;1.77;;;5.50;99.90;;;;;;4979801;28;20165;-87
2022/12/24 06:12:47;;;;;;;15.18;2.20;;;5.50;99.90;;;;;;4979641;28;20011;-86
2022/12/24 06:15:13;;;;;;;10.00;1.90;;;5.50;99.90;;;;;;4979656;28;20038;-89
2022/12/24 06:17:39;;;;;;;9.75;1.20;;;5.50;99.90;;;;;;4979578;28;20035;-93
2022/12/24 06:20:05;;;;;;;11.63;1.90;;;5.50;99.90;;;;;;4979472;28;20078;-88
2022/12/24 06:22:31;;;;;;;18.90;2.00;;;5.40;99.90;;;;;;4980172;28;20042;-86
2022/12/24 06:24:57;;;;;;;14.75;1.20;;;5.50;99.90;;;;;;4980102;28;20043;-87
2022/12/24 06:27:22;;;;;;;17.67;2.70;;;5.50;99.90;;;;;;4979665;28;20019;-88
2022/12/24 06:29:51;;;;;;;16.63;2.17;;;5.40;99.90;;;;;;4979379;28;20023;-87
2022/12/24 06:32:21;;;;;;;10.25;1.70;;;5.40;99.90;;;;;;4979757;28;20043;-86
2022/12/24 06:34:49;;;;;;;16.80;2.10;;;5.40;99.90;;;;;;4979410;28;20015;-86
2022/12/24 06:37:17;;;;;;;5.43;1.48;;;5.40;99.90;;;;;;4979326;28;20027;-85
2022/12/24 06:39:45;;;;;;;13.13;1.98;;;5.40;99.90;;;;;;4979325;28;20019;-90
2022/12/24 06:42:11;;;;;;;13.32;1.48;;;5.30;99.90;;;;;;4979208;28;20011;-86
2022/12/24 06:44:40;;;;;;;20.48;2.15;;;5.30;99.90;;;;;;4978778;28;20019;-85
2022/12/24 06:47:07;;;;;;;8.98;1.85;;;5.20;99.90;;;;;;4979199;28;20012;-90
2022/12/24 06:49:33;;;;;;;23.70;2.63;;;5.20;99.90;;;;;;4979112;28;20026;-85
2022/12/24 06:52:23;;;;;;;8.77;1.30;;;5.20;99.90;;;;;;4979295;28;20019;-90
2022/12/24 06:55:11;;;;;;;7.78;1.33;;;5.20;99.90;;;;;;4979814;28;20020;-88
2022/12/24 06:57:38;;;;;;;11.52;1.50;;;5.20;99.90;;;;;;4973912;28;20036;-85
2022/12/24 07:00:09;;;;;;;19.40;2.53;;;5.10;99.90;;;;;;4979777;28;20043;-86
2022/12/24 07:02:38;;;;;;;8.57;1.17;;;5.10;99.90;;;;;;4979280;28;20019;-86
2022/12/24 07:05:05;;;;;;;18.20;1.88;;;5.10;99.90;;;;;;4979505;28;20038;-84
2022/12/24 07:07:32;;;;;;;14.05;1.45;;;5.00;99.90;;;;;;4979598;28;20016;-86
2022/12/24 07:09:57;;;;;;;18.52;1.80;;;5.00;99.90;;;;;;4978879;28;20019;-87
2022/12/24 07:12:56;;;;;;;22.48;1.95;;;5.00;99.90;;;;;;4979012;28;20046;-90
2022/12/24 07:15:21;;;;;;;15.73;2.00;;;5.00;99.90;;;;;;4978768;28;20019;-86
2022/12/24 07:17:51;;;;;;;14.18;1.90;;;4.90;99.90;;;;;;4979098;28;20046;-91
2022/12/24 07:20:19;;;;;;;18.23;3.60;;;4.90;99.90;;;;;;4979111;28;20023;-88
2022/12/24 07:22:45;;;;;;;15.48;1.67;;;5.00;99.90;;;;;;4978843;28;20019;-88
2022/12/24 07:25:11;;;;;;;8.50;1.40;;;4.90;99.90;;;;;;4979247;28;20029;-93
2022/12/24 07:27:37;;;;;;;23.92;2.53;;;4.90;99.90;;;;;;4979217;28;20058;-90
2022/12/24 07:30:04;;;;;;;15.65;2.28;;;4.90;99.90;;;;;;4979128;28;20028;-87
2022/12/24 07:32:30;;;;;;;20.02;2.85;;;4.90;99.90;;;;;;4978942;28;20015;-89
2022/12/24 07:34:56;;;;;;;18.00;3.58;;;4.90;99.90;;;;;;4978795;28;20080;-89
2022/12/24 07:37:21;;;;;;;25.35;2.78;;;4.90;99.90;;;;;;4979597;28;20027;-85
2022/12/24 07:39:47;;;;;;;13.48;1.75;;;4.80;99.90;;;;;;4979191;28;20043;-86
2022/12/24 07:42:13;;;;;;;18.33;2.30;;;4.80;99.90;;;;;;4979832;28;20011;-88
2022/12/24 07:44:38;;;;;;;10.43;1.50;;;4.90;99.90;;;;;;4979196;28;20032;-94
2022/12/24 07:47:04;;;;;;;13.77;1.50;;;4.80;99.90;;;;;;4979805;28;20071;-86
2022/12/24 07:49:30;;;;;;;21.00;1.88;;;4.80;99.90;;;;;;4979124;28;20068;-89
2022/12/24 07:51:57;;;;;;;10.77;1.40;;;4.80;99.90;;;;;;4979863;28;20022;-86
2022/12/24 07:54:23;;;;;;;23.90;2.92;;;4.80;99.90;;;;;;4979543;28;20030;-90
2022/12/24 07:56:49;;;;;;;15.35;1.92;;;4.70;99.90;;;;;;4980596;28;20043;-95
2022/12/24 07:59:14;;;;;;;22.42;2.38;;;4.80;99.90;;;;;;4982194;28;20031;-93
2022/12/24 08:01:40;;;;;;;20.77;2.65;;;4.80;99.90;;;;;;4981971;28;20077;-93
2022/12/24 08:04:10;;;;;;;19.65;3.80;;;4.80;99.90;;;;;;4980406;28;20027;-94
2022/12/24 08:06:36;;;;;;;18.58;2.47;;;4.90;99.90;;;;;;4979651;28;20055;-95
2022/12/24 08:09:02;;;;;;;11.48;2.38;;;4.90;99.90;;;;;;4978691;28;20093;-95
2022/12/24 08:11:28;;;;;;;24.25;2.30;;;4.90;99.90;;;;;;4977037;29;20054;-90
2022/12/24 08:13:53;;;;;;;20.55;3.95;;;5.00;99.90;;;;;;4977870;28;20050;-91
2022/12/24 08:16:19;;;;;;;19.13;2.00;;;5.00;99.90;;;;;;4975216;28;20035;-94
2022/12/24 08:18:45;;;;;;;27.23;3.28;;;5.00;99.90;;;;;;4974798;29;20031;-95
2022/12/24 08:21:10;;;;;;;35.50;2.90;;;5.10;99.90;;;;;;4976820;29;20034;-91
2022/12/24 08:23:36;;;;;;;20.40;3.00;;;5.10;99.90;;;;;;4977689;28;20031;-93
2022/12/24 08:26:05;;;;;;;34.63;3.88;;;5.10;99.90;;;;;;4976800;29;20011;-94
2022/12/24 08:28:30;;;;;;;30.35;2.60;;;5.20;99.90;;;;;;4975744;29;20099;-92
2022/12/24 08:30:58;;;;;;;25.30;2.72;;;5.30;99.90;;;;;;4968849;29;20031;-93
2022/12/24 08:33:24;;;;;;;24.63;2.85;;;5.40;99.90;;;;;;4974946;28;20015;-88
2022/12/24 08:35:54;;;;;;;20.60;2.92;;;5.40;99.90;;;;;;4977145;28;20054;-96
2022/12/24 08:38:20;;;;;;;20.60;2.92;;;5.50;99.90;;;;;;4972345;29;20043;-94
2022/12/24 08:40:48;;;;;;;18.50;2.05;;;5.50;99.90;;;;;;4967441;29;20031;-93
2022/12/24 08:43:15;;;;;;;18.33;2.17;;;5.50;99.90;;;;;;4973004;29;20030;-94
2022/12/24 08:45:41;;;;;;;35.22;3.97;;;5.40;99.90;;;;;;4965887;29;20046;-95
2022/12/24 08:48:08;;;;;;;26.60;2.47;;;5.50;99.90;;;;;;4965042;29;20027;-95
2022/12/24 08:50:34;;;;;;;19.23;2.80;;;5.50;99.90;;;;;;4963457;29;20031;-96
2022/12/24 08:53:00;;;;;;;25.85;2.90;;;5.50;99.90;;;;;;4969931;29;20031;-95
2022/12/24 08:55:26;;;;;;;21.73;2.13;;;5.50;99.90;;;;;;4967715;29;20027;-94
2022/12/24 08:57:51;;;;;;;32.75;3.03;;;5.60;99.90;;;;;;4976367;28;20070;-94
2022/12/24 09:00:17;;;;;;;22.63;2.28;;;5.60;99.90;;;;;;4970239;29;20055;-95
2022/12/24 09:02:47;;;;;;;20.70;2.88;;;5.60;99.90;;;;;;4971501;29;20129;-94
2022/12/24 09:05:13;;;;;;;19.88;2.78;;;5.60;99.90;;;;;;4979146;28;20050;-91
2022/12/24 09:07:39;;;;;;;19.05;2.83;;;5.70;99.90;;;;;;4969290;28;20043;-94
2022/12/24 09:10:05;;;;;;;24.85;2.50;;;5.70;99.90;;;;;;4970524;28;20042;-92
2022/12/24 09:12:31;;;;;;;25.60;3.60;;;5.70;99.90;;;;;;4973682;29;20031;-94
2022/12/24 09:14:56;;;;;;;25.80;3.08;;;5.80;99.90;;;;;;4977001;29;20015;-95
2022/12/24 09:17:22;;;;;;;26.63;3.65;;;5.80;99.90;;;;;;4978966;28;20047;-93
2022/12/24 09:19:48;;;;;;;31.30;3.47;;;5.80;99.90;;;;;;4956839;28;20039;-92
2022/12/24 09:22:14;;;;;;;23.08;2.72;;;5.90;99.90;;;;;;4972730;29;20039;-94
2022/12/24 09:24:39;;;;;;;23.23;3.58;;;6.00;99.90;;;;;;4971430;28;20015;-95
2022/12/24 09:27:05;;;;;;;27.67;2.70;;;6.10;99.90;;;;;;4969055;29;20039;-95
2022/12/24 09:29:31;;;;;;;27.65;3.78;;;6.10;99.90;;;;;;4972930;29;20031;-95
2022/12/24 09:31:57;;;;;;;23.55;3.60;;;6.20;99.90;;;;;;4973399;28;20110;-95
2022/12/24 09:34:24;;;;;;;26.73;2.92;;;6.30;99.90;;;;;;4971674;29;20023;-94
2022/12/24 09:36:53;;;;;;;19.95;2.67;;;6.40;99.90;;;;;;4973108;28;20028;-91
2022/12/24 09:39:19;;;;;;;22.08;3.53;;;6.50;99.90;;;;;;4974357;28;20079;-93
2022/12/24 09:42:03;;;;;;;30.42;2.92;;;6.60;99.90;;;;;;4966407;29;20027;-95
2022/12/24 09:44:41;;;;;;;20.80;2.28;;;6.70;99.90;;;;;;4972290;28;20146;-93
2022/12/24 09:47:33;;;;;;;25.13;4.45;;;6.80;99.90;;;;;;4969316;28;20110;-94
2022/12/24 09:50:03;;;;;;;27.35;3.47;;;6.90;99.90;;;;;;4977529;28;20031;-94
2022/12/24 09:52:37;;;;;;;24.15;2.67;;;7.10;99.90;;;;;;4972383;28;20023;-93
2022/12/24 09:55:27;;;;;;;24.90;3.10;;;7.20;99.90;;;;;;4973212;28;20036;-95
2022/12/24 09:57:55;;;;;;;16.75;2.35;;;7.40;99.90;;;;;;4975791;28;20569;-94
2022/12/24 10:00:28;;;;;;;28.08;4.13;;;7.50;99.90;;;;;;4975964;28;20083;-95
2022/12/24 10:02:54;;;;;;;25.60;2.40;;;7.60;99.90;;;;;;4977198;28;20023;-89
2022/12/24 10:05:27;;;;;;;22.02;3.33;;;7.70;99.90;;;;;;4976631;28;20067;-91
2022/12/24 10:08:16;;;;;;;18.50;2.75;;;7.70;99.90;;;;;;4978607;28;20039;-93
2022/12/24 10:10:58;;;;;;;25.58;2.83;;;7.70;99.90;;;;;;4973543;29;20039;-93
2022/12/24 10:13:53;;;;;;;25.25;2.40;;;7.70;99.90;;;;;;4977211;28;20031;-88
2022/12/24 10:16:39;;;;;;;20.17;2.75;;;7.60;99.90;;;;;;4972961;28;20059;-94
2022/12/24 10:19:16;;;;;;;20.67;3.10;;;7.60;99.90;;;;;;4975864;28;20071;-94
2022/12/24 10:22:13;;;;;;;18.40;2.38;;;7.50;99.90;;;;;;4975060;28;20043;-86
2022/12/24 10:25:01;;;;;;;24.90;3.17;;;7.50;99.90;;;;;;4973201;28;20050;-90
2022/12/24 10:27:34;;;;;;;22.17;3.47;;;7.50;99.90;;;;;;4977925;28;20024;-90
2022/12/24 10:30:11;;;;;;;25.85;3.10;;;7.50;99.90;;;;;;4977367;28;20039;-93
2022/12/24 10:32:37;;;;;;;16.45;2.40;;;7.50;99.90;;;;;;4977318;28;20038;-89
2022/12/24 10:35:14;;;;;;;19.55;2.58;;;7.50;99.90;;;;;;4976058;29;20031;-93
2022/12/24 10:37:41;;;;;;;23.42;4.18;;;7.60;99.90;;;;;;4974840;29;20027;-94
2022/12/24 10:40:21;;;;;;;13.55;2.15;;;7.80;99.90;;;;;;4978832;28;20067;-89
2022/12/24 10:42:47;;;;;;;21.13;3.10;;;7.90;99.90;;;;;;4977523;28;20043;-92
2022/12/24 10:45:19;;;;;;;25.08;3.28;;;8.10;99.90;;;;;;4975929;28;20043;-87
2022/12/24 10:47:49;;;;;;;23.25;3.63;;;8.50;99.90;;;;;;4974904;28;20019;-92
2022/12/24 10:50:32;;;;;;;26.02;2.88;;;8.90;99.90;;;;;;4974965;29;20027;-92
2022/12/24 10:53:17;;;;;;;17.42;2.67;;;9.40;99.90;;;;;;4972201;29;20046;-94
2022/12/24 10:55:43;;;;;;;17.25;2.33;;;9.90;99.90;;;;;;4972664;28;20031;-95
2022/12/24 10:58:18;;;;;;;18.08;3.45;;;10.30;99.90;;;;;;4968046;28;20050;-95
2022/12/24 11:00:52;;;;;;;19.95;2.92;;;10.80;99.90;;;;;;4971452;28;20028;-94
2022/12/24 11:03:17;;;;;;;16.65;2.75;;;11.30;99.90;;;;;;4976516;28;20031;-95
2022/12/24 11:05:43;;;;;;;21.13;2.92;;;11.80;99.90;;;;;;4972719;29;20063;-94
2022/12/24 11:08:11;;;;;;;21.90;2.75;;;12.00;99.90;;;;;;4971607;28;20027;-94
2022/12/24 11:10:52;;;;;;;21.35;3.08;;;12.30;99.90;;;;;;4971505;28;20039;-96
2022/12/24 11:13:22;;;;;;;;;;;12.50;99.90;;;;;;4973532;28;20046;-96
2022/12/24 11:15:59;;;;;;;26.23;3.70;;;12.80;99.90;;;;;;5001616;28;20052;-93
2022/12/24 11:18:25;;;;;;;24.48;2.75;;;12.80;99.90;;;;;;4969278;29;20129;-96
2022/12/24 11:20:52;;;;;;;18.02;2.90;;;13.00;99.90;;;;;;4969635;29;20031;-96
2022/12/24 11:23:18;;;;;;;19.33;3.10;;;13.30;99.90;;;;;;4971892;29;20043;-96
2022/12/24 11:25:51;;;;;;;19.42;2.38;;;13.60;99.90;;;;;;4971627;28;20016;-96
2022/12/24 11:28:22;;;;;;;11.95;2.95;;;13.70;99.90;;;;;;4958058;28;20046;-94
2022/12/24 11:31:11;;;;;;;;;;;13.90;99.90;;;;;;4981135;28;20132;-93
2022/12/24 11:33:52;;;;;;;20.67;2.42;;;14.00;99.90;;;;;;5008622;28;19949;-95
2022/12/24 11:36:22;;;;;;;11.45;2.03;;;14.30;99.90;;;;;;4980954;28;20018;-94
2022/12/24 11:38:53;;;;;;;14.50;2.75;;;14.40;99.90;;;;;;4960968;28;20083;-96
2022/12/24 11:41:19;;;;;;;14.90;2.00;;;14.50;99.90;;;;;;4973226;29;20055;-96
2022/12/24 11:43:50;;;;;;;16.60;3.35;;;14.70;99.90;;;;;;4979743;28;20023;-90
2022/12/24 11:46:21;;;;;;;16.65;2.65;;;14.80;99.90;;;;;;4980294;28;20035;-96
2022/12/24 11:48:48;;;;;;;15.20;2.33;;;14.90;99.90;;;;;;4980446;28;20036;-96
2022/12/24 11:51:26;;;;;;;14.57;2.17;;;15.00;99.90;;;;;;4979243;28;20024;-93
2022/12/24 11:54:09;;;;;;;13.82;3.20;;;14.90;99.90;;;;;;4977140;28;20027;-95
2022/12/24 11:56:51;;;;;;;19.95;3.00;;;14.80;99.90;;;;;;4975581;28;20385;-94
2022/12/24 11:59:51;;;;;;;14.98;2.70;;;14.50;99.90;;;;;;4978987;28;20038;-96
2022/12/24 12:02:28;;;;;;;42.80;4.15;;;14.70;99.90;;;;;;4975652;28;20069;-94
2022/12/24 12:05:25;;;;;;;12.02;2.03;;;15.00;99.90;;;;;;4972293;28;20062;-96
2022/12/24 12:07:57;;;;;;;15.55;2.75;;;15.20;99.90;;;;;;4969640;29;20027;-96
2022/12/24 12:10:29;;;;;;;14.38;2.05;;;15.20;99.10;;;;;;4970815;29;20098;-96
2022/12/24 12:13:13;;;;;;;9.82;1.92;;;14.90;98.20;;;;;;4972742;28;20482;-95
2022/12/24 12:16:17;;;;;;;20.85;3.78;;;14.50;98.40;;;;;;4976090;28;20024;-95
2022/12/24 12:18:53;;;;;;;25.48;7.45;;;14.10;98.80;;;;;;4971135;29;20051;-94
2022/12/24 12:21:24;;;;;;;29.52;5.28;;;13.70;99.70;;;;;;4967374;29;20031;-95
2022/12/24 12:23:57;;;;;;;16.05;3.22;;;13.70;99.90;;;;;;4972693;28;20050;-93
2022/12/24 12:26:27;;;;;;;16.80;2.72;;;13.80;99.90;;;;;;4976272;29;20110;-94
2022/12/24 12:29:38;;;;;;;13.77;2.28;;;14.10;99.90;;;;;;4973228;29;20031;-95
2022/12/24 12:32:11;;;;;;;16.17;2.03;;;14.40;99.90;;;;;;4968906;28;20023;-90
2022/12/24 12:35:15;;;;;;;20.05;2.50;;;14.70;99.90;;;;;;4978044;28;20043;-93
2022/12/24 12:37:47;;;;;;;18.42;2.95;;;14.90;99.20;;;;;;4945485;29;20107;-95
2022/12/24 12:40:17;;;;;;;18.10;2.83;;;15.00;98.60;;;;;;4955485;29;20035;-95
2022/12/24 12:43:08;;;;;;;23.90;4.75;;;14.90;96.90;;;;;;4952641;29;20106;-96
2022/12/24 12:45:56;;;;;;;11.88;3.00;;;14.60;96.80;;;;;;4948273;29;20118;-94
2022/12/24 12:48:41;;;;;;;19.30;3.63;;;14.40;97.40;;;;;;4950023;29;20059;-93
2022/12/24 12:51:39;;;;;;;15.45;3.30;;;14.10;97.40;;;;;;4984439;28;20509;-94
2022/12/24 12:54:29;;;;;;;17.23;3.97;;;14.00;97.30;;;;;;4948853;29;20027;-94
2022/12/24 12:56:59;;;;;;;18.48;3.10;;;14.00;98.00;;;;;;4955793;28;20011;-93
2022/12/24 12:59:34;;;;;;;22.98;3.80;;;14.10;97.40;;;;;;4955727;29;20040;-91
2022/12/24 13:02:17;;;;;;;18.33;2.83;;;14.10;96.70;;;;;;4958821;28;20062;-94
2022/12/24 13:05:28;;;;;;;14.65;2.97;;;14.00;95.80;;;;;;4961162;28;20042;-92
2022/12/24 13:08:25;;;;;;;17.65;3.20;;;14.00;95.40;;;;;;4974675;28;20047;-92
2022/12/24 13:11:14;;;;;;;16.15;3.80;;;13.90;95.30;;;;;;4977312;28;20058;-93
2022/12/24 13:14:11;;;;;;;19.23;3.25;;;13.90;95.30;;;;;;4976615;28;20042;-86
2022/12/24 13:17:02;;;;;;;14.02;2.88;;;14.10;95.20;;;;;;4962342;29;20031;-94
2022/12/24 13:20:05;;;;;;;19.77;4.68;;;14.20;95.00;;;;;;4977169;28;20095;-93